| time (UTC) | temp F | wind direction | speed MPH | gust MPH | rain 1hr in | rain 24hr in | rain mn in | humidity % | barometer mb |
| 20260419134601 | 43 | 269 | 5.0 | 8.0 | 0.00 | 0.05 | 0.00 | 29 | 1024.1 |
| 20260419133134 | 41 | 240 | 0.0 | 2.0 | 0.00 | 0.05 | 0.00 | 29 | 1024.1 |
| 20260419131555 | 39 | 218 | 1.0 | 3.0 | 0.00 | 0.05 | 0.00 | 31 | 1023.9 |
| 20260419130054 | 39 | 241 | 0.0 | 2.0 | 0.00 | 0.05 | 0.00 | 30 | 1024.1 |
| 20260419124607 | 38 | 241 | 3.0 | 5.0 | 0.00 | 0.05 | 0.00 | 30 | 1023.9 |
| 20260419123054 | 37 | 217 | 3.0 | 4.0 | 0.00 | 0.05 | 0.00 | 31 | 1023.9 |
| 20260419121607 | 38 | 217 | 2.0 | 4.0 | 0.00 | 0.05 | 0.00 | 30 | 1023.9 |
| 20260419120053 | 36 | 209 | 4.0 | 6.0 | 0.00 | 0.05 | 0.00 | 33 | 1023.7 |
| 20260419114551 | 36 | 105 | 0.0 | 2.0 | 0.00 | 0.05 | 0.00 | 33 | 1024.0 |
| 20260419113047 | 36 | 102 | 2.0 | 4.0 | 0.00 | 0.05 | 0.00 | 33 | 1023.9 |
| 20260419111548 | 38 | 123 | 0.0 | 2.0 | 0.00 | 0.05 | 0.00 | 31 | 1024.0 |
| 20260419110039 | 39 | 123 | 3.0 | 4.0 | 0.00 | 0.05 | 0.00 | 29 | 1024.2 |
| 20260419104537 | 40 | 190 | 1.0 | 4.0 | 0.00 | 0.05 | 0.00 | 27 | 1024.5 |
| 20260419103036 | 39 | 153 | 2.0 | 3.0 | 0.00 | 0.05 | 0.00 | 28 | 1024.6 |
| 20260419101532 | 40 | 149 | 2.0 | 3.0 | 0.00 | 0.05 | 0.00 | 27 | 1024.9 |
| 20260419100031 | 41 | 136 | 1.0 | 3.0 | 0.00 | 0.05 | 0.00 | 25 | 1025.1 |
| 20260419094532 | 41 | 174 | 3.0 | 8.0 | 0.00 | 0.05 | 0.00 | 24 | 1025.1 |
| 20260419093026 | 42 | 211 | 6.0 | 10.0 | 0.00 | 0.05 | 0.00 | 24 | 1025.1 |
| 20260419091521 | 42 | 207 | 6.0 | 9.0 | 0.00 | 0.05 | 0.00 | 24 | 1025.3 |
| 20260419090022 | 42 | 212 | 5.0 | 9.0 | 0.00 | 0.05 | 0.00 | 24 | 1025.5 |
| 20260419084525 | 42 | 240 | 6.0 | 9.0 | 0.00 | 0.05 | 0.00 | 24 | 1025.7 |
| 20260419083015 | 43 | 237 | 5.0 | 10.0 | 0.00 | 0.05 | 0.00 | 23 | 1026.0 |
| 20260419081511 | 43 | 194 | 6.0 | 10.0 | 0.00 | 0.05 | 0.00 | 23 | 1026.2 |
| 20260419080013 | 42 | 215 | 5.0 | 10.0 | 0.00 | 0.05 | 0.00 | 24 | 1026.5 |
| 20260419074507 | 43 | 213 | 4.0 | 10.0 | 0.00 | 0.05 | 0.00 | 24 | 1026.7 |
| 20260419073010 | 43 | 200 | 6.0 | 11.0 | 0.00 | 0.05 | 0.00 | 25 | 1026.7 |
| 20260419071502 | 43 | 205 | 5.0 | 10.0 | 0.00 | 0.05 | 0.00 | 25 | 1027.0 |
| 20260419070108 | 43 | 207 | 7.0 | 13.0 | 0.00 | 0.05 | 0.00 | 25 | 1027.2 |
| 20260419064559 | 43 | 212 | 9.0 | 14.0 | 0.00 | 0.05 | 0.00 | 24 | 1027.2 |
| 20260419063104 | 43 | 213 | 8.0 | 12.0 | 0.00 | 0.05 | 0.00 | 25 | 1027.2 |
| 20260419061557 | 43 | 212 | 8.0 | 15.0 | 0.00 | 0.05 | 0.00 | 25 | 1027.2 |
| 20260419060050 | 43 | 218 | 6.0 | 11.0 | 0.00 | 0.05 | 0.05 | 25 | 1027.4 |
| 20260419054614 | 44 | 208 | 8.0 | 15.0 | 0.00 | 0.05 | 0.05 | 24 | 1027.4 |
| 20260419053048 | 45 | 207 | 9.0 | 16.0 | 0.00 | 0.05 | 0.05 | 24 | 1027.5 |
| 20260419051548 | 45 | 220 | 8.0 | 12.0 | 0.00 | 0.05 | 0.05 | 24 | 1027.9 |
| 20260419050047 | 45 | 206 | 6.0 | 15.0 | 0.00 | 0.05 | 0.05 | 25 | 1028.2 |
| 20260419044546 | 45 | 203 | 7.0 | 13.0 | 0.00 | 0.05 | 0.05 | 24 | 1028.2 |
| 20260419043045 | 45 | 204 | 7.0 | 14.0 | 0.00 | 0.05 | 0.05 | 26 | 1028.5 |
| 20260419041548 | 45 | 215 | 6.0 | 10.0 | 0.00 | 0.05 | 0.05 | 27 | 1028.7 |
| 20260419040044 | 45 | 219 | 5.0 | 8.0 | 0.00 | 0.05 | 0.05 | 28 | 1028.9 |
| 20260419034546 | 45 | 223 | 5.0 | 8.0 | 0.00 | 0.05 | 0.05 | 28 | 1028.9 |
| 20260419033044 | 46 | 223 | 5.0 | 7.0 | 0.00 | 0.05 | 0.05 | 27 | 1028.9 |
| 20260419031542 | 46 | 225 | 5.0 | 9.0 | 0.00 | 0.05 | 0.05 | 27 | 1028.9 |
| 20260419030042 | 47 | 219 | 4.0 | 8.0 | 0.00 | 0.05 | 0.05 | 26 | 1028.8 |
| 20260419024542 | 47 | 202 | 5.0 | 10.0 | 0.00 | 0.05 | 0.05 | 27 | 1028.6 |
| 20260419023042 | 47 | 189 | 3.0 | 8.0 | 0.00 | 0.05 | 0.05 | 27 | 1028.5 |
| 20260419021543 | 47 | 199 | 5.0 | 9.0 | 0.00 | 0.05 | 0.05 | 23 | 1028.4 |
| 20260419020043 | 48 | 314 | 2.0 | 3.0 | 0.00 | 0.06 | 0.05 | 21 | 1028.2 |
| 20260419014540 | 49 | 315 | 3.0 | 6.0 | 0.00 | 0.06 | 0.05 | 21 | 1028.1 |
| 20260419013039 | 50 | 328 | 4.0 | 6.0 | 0.00 | 0.06 | 0.05 | 20 | 1028.1 |
| 20260419011540 | 51 | 341 | 2.0 | 3.0 | 0.00 | 0.06 | 0.05 | 21 | 1028.0 |
| 20260419010038 | 52 | 345 | 0.0 | 2.0 | 0.00 | 0.08 | 0.05 | 22 | 1028.1 |
| 20260419004537 | 53 | 332 | 1.0 | 5.0 | 0.00 | 0.08 | 0.05 | 23 | 1028.2 |
| 20260419003037 | 54 | 350 | 3.0 | 5.0 | 0.00 | 0.08 | 0.05 | 20 | 1028.0 |
| 20260419001537 | 55 | 355 | 3.0 | 11.0 | 0.00 | 0.08 | 0.05 | 21 | 1028.1 |
| 20260419000038 | 56 | 319 | 6.0 | 10.0 | 0.00 | 0.10 | 0.05 | 19 | 1028.1 |
| 20260418234548 | 55 | 360 | 0.0 | 8.0 | 0.00 | 0.10 | 0.05 | 20 | 1028.2 |
| 20260418233047 | 55 | 350 | 3.0 | 9.0 | 0.00 | 0.10 | 0.05 | 21 | 1028.2 |
| 20260418231538 | 56 | 355 | 3.0 | 8.0 | 0.00 | 0.10 | 0.05 | 20 | 1028.1 |
| 20260418230053 | 55 | 66 | 2.0 | 6.0 | 0.00 | 0.15 | 0.05 | 19 | 1028.2 |
| 20260418224534 | 55 | 278 | 2.0 | 8.0 | 0.00 | 0.15 | 0.05 | 19 | 1028.2 |
| 20260418223032 | 54 | 250 | 4.0 | 8.0 | 0.00 | 0.15 | 0.05 | 18 | 1028.4 |
| 20260418221533 | 55 | 205 | 2.0 | 5.0 | 0.00 | 0.15 | 0.05 | 19 | 1028.5 |
| 20260418220040 | 55 | 258 | 4.0 | 12.0 | 0.00 | 0.16 | 0.05 | 19 | 1028.9 |
| 20260418214543 | 56 | 65 | 5.0 | 10.0 | 0.00 | 0.16 | 0.05 | 21 | 1029.0 |
| 20260418213033 | 52 | 152 | 5.0 | 11.0 | 0.00 | 0.16 | 0.05 | 22 | 1029.2 |
| 20260418211528 | 51 | 80 | 2.0 | 11.0 | 0.00 | 0.16 | 0.05 | 22 | 1029.6 |
| 20260418210026 | 52 | 269 | 3.0 | 8.0 | 0.00 | 0.17 | 0.05 | 20 | 1029.9 |
| 20260418204531 | 51 | 112 | 1.0 | 8.0 | 0.00 | 0.17 | 0.05 | 23 | 1030.0 |
| 20260418203032 | 52 | 289 | 6.0 | 13.0 | 0.00 | 0.17 | 0.05 | 20 | 1030.3 |
| 20260418201523 | 49 | 317 | 10.0 | 16.0 | 0.00 | 0.17 | 0.05 | 22 | 1030.5 |
| 20260418200024 | 50 | 340 | 6.0 | 14.0 | 0.00 | 0.18 | 0.05 | 22 | 1030.7 |
| 20260418194536 | 49 | 305 | 12.0 | 17.0 | 0.00 | 0.18 | 0.05 | 24 | 1030.9 |
| 20260418193017 | 47 | 221 | 6.0 | 12.0 | 0.00 | 0.18 | 0.05 | 25 | 1031.1 |
| 20260418191535 | 47 | 271 | 5.0 | 12.0 | 0.00 | 0.18 | 0.05 | 26 | 1031.3 |
| 20260418190022 | 45 | 281 | 4.0 | 12.0 | 0.00 | 0.19 | 0.05 | 30 | 1031.5 |
| 20260418184513 | 45 | 288 | 6.0 | 15.0 | 0.01 | 0.19 | 0.05 | 29 | 1031.9 |
| 20260418183010 | 44 | 242 | 6.0 | 10.0 | 0.01 | 0.19 | 0.05 | 31 | 1032.2 |
| 20260418181508 | 42 | 254 | 4.0 | 14.0 | 0.02 | 0.19 | 0.05 | 37 | 1032.5 |
| 20260418180009 | 42 | 234 | 7.0 | 11.0 | 0.02 | 0.19 | 0.05 | 32 | 1032.7 |
| 20260418174504 | 40 | 220 | 3.0 | 13.0 | 0.02 | 0.18 | 0.04 | 30 | 1032.9 |
| 20260418173001 | 40 | 268 | 6.0 | 13.0 | 0.02 | 0.18 | 0.04 | 32 | 1033.1 |
| 20260418171600 | 40 | 271 | 3.0 | 8.0 | 0.01 | 0.17 | 0.03 | 36 | 1033.0 |
| 20260418170059 | 38 | 314 | 6.0 | 11.0 | 0.01 | 0.17 | 0.03 | 31 | 1032.7 |
| 20260418164557 | 39 | 338 | 2.0 | 8.0 | 0.01 | 0.16 | 0.02 | 40 | 1032.8 |
| 20260418163113 | 37 | 246 | 2.0 | 8.0 | 0.01 | 0.16 | 0.02 | 37 | 1032.7 |
| 20260418161552 | 37 | 208 | 6.0 | 11.0 | 0.02 | 0.16 | 0.02 | 37 | 1032.7 |
| 20260418160049 | 36 | 279 | 2.0 | 6.0 | 0.01 | 0.15 | 0.01 | 43 | 1032.7 |
| 20260418154545 | 35 | 253 | 1.0 | 8.0 | 0.01 | 0.15 | 0.01 | 49 | 1032.6 |
| 20260418153043 | 34 | 294 | 4.0 | 9.0 | 0.01 | 0.15 | 0.01 | 50 | 1032.5 |
| 20260418151540 | 33 | 311 | 2.0 | 9.0 | 0.00 | 0.14 | 0.00 | 52 | 1032.4 |
| 20260418150036 | 31 | 267 | 5.0 | 10.0 | 0.00 | 0.14 | 0.00 | 53 | 1032.3 |
| 20260418144532 | 30 | 284 | 6.0 | 10.0 | 0.00 | 0.14 | 0.00 | 56 | 1032.3 |
| 20260418143031 | 29 | 267 | 6.0 | 9.0 | 0.00 | 0.14 | 0.00 | 59 | 1032.0 |
| 20260418141525 | 28 | 259 | 7.0 | 11.0 | 0.00 | 0.14 | 0.00 | 60 | 1032.0 |
| 20260418140032 | 27 | 274 | 8.0 | 14.0 | 0.00 | 0.14 | 0.00 | 60 | 1031.7 |